Time;durP1;ratioP1;P1;durP2;ratioP2;P2;SDS_P1;SDS_P2;PMS_P1;PMS_P2;Temp;Humidity;BMP_temperature;BMP_pressure;BME280_temperature;BME280_humidity;BME280_pressure;Samples;Min_cycle;Max_cycle;Signal;HPM_P1;HPM_P2
2021/12/20 00:00:07;;;;;;;10.50;5.00;;;;;;;;;;5049533;28;20509;-80
2021/12/20 00:02:33;;;;;;;14.33;5.40;;;;;;;;;;5050162;28;20506;-78
2021/12/20 00:05:00;;;;;;;20.37;6.30;;;;;;;;;;5048829;28;20486;-80
2021/12/20 00:07:26;;;;;;;23.63;8.47;;;;;;;;;;5050915;28;20444;-81
2021/12/20 00:09:53;;;;;;;24.23;8.20;;;;;;;;;;5046614;28;20483;-80
2021/12/20 00:12:20;;;;;;;23.50;6.97;;;;;;;;;;5045672;28;20476;-80
2021/12/20 00:14:46;;;;;;;24.73;8.93;;;;;;;;;;5048232;28;20509;-80
2021/12/20 00:17:12;;;;;;;23.20;7.87;;;;;;;;;;5048465;28;20513;-80
2021/12/20 00:19:38;;;;;;;31.37;7.93;;;;;;;;;;5049083;28;20484;-81
2021/12/20 00:22:05;;;;;;;28.37;8.40;;;;;;;;;;5050322;28;20488;-81
2021/12/20 00:24:31;;;;;;;23.37;6.90;;;;;;;;;;5048905;28;20898;-80
2021/12/20 00:26:59;;;;;;;14.63;6.47;;;;;;;;;;5049523;28;20502;-80
2021/12/20 00:29:25;;;;;;;16.90;7.40;;;;;;;;;;5046790;28;20480;-81
2021/12/20 00:31:52;;;;;;;20.20;6.67;;;;;;;;;;5047325;28;20464;-80
2021/12/20 00:34:18;;;;;;;14.50;5.90;;;;;;;;;;5057481;28;20481;-80
2021/12/20 00:36:44;;;;;;;18.53;6.07;;;;;;;;;;5051869;28;20475;-80
2021/12/20 00:41:55;;;;;;;16.50;5.90;;;;;;;;;;5046248;28;20474;-78
2021/12/20 00:44:22;;;;;;;21.17;6.47;;;;;;;;;;5045204;28;20532;-80
2021/12/20 00:46:49;;;;;;;12.93;6.13;;;;;;;;;;5045807;28;20494;-80
2021/12/20 00:49:15;;;;;;;14.43;5.83;;;;;;;;;;5046658;28;20485;-80
2021/12/20 00:51:41;;;;;;;10.70;5.23;;;;;;;;;;5045551;28;20511;-80
2021/12/20 00:54:07;;;;;;;7.20;4.50;;;;;;;;;;5043820;28;20480;-80
2021/12/20 00:56:34;;;;;;;8.67;4.53;;;;;;;;;;5045538;28;20449;-80
2021/12/20 00:59:00;;;;;;;7.53;5.30;;;;;;;;;;5045711;28;20518;-81
2021/12/20 01:01:27;;;;;;;12.70;6.13;;;;;;;;;;5044279;28;20481;-81
2021/12/20 01:03:54;;;;;;;8.40;5.40;;;;;;;;;;5044118;28;20531;-80
2021/12/20 01:06:20;;;;;;;9.73;5.10;;;;;;;;;;5045685;28;20524;-80
2021/12/20 01:08:48;;;;;;;12.07;5.40;;;;;;;;;;5046220;28;20513;-80
2021/12/20 01:11:20;;;;;;;7.13;4.87;;;;;;;;;;5046117;28;20539;-80
2021/12/20 01:13:47;;;;;;;9.70;5.90;;;;;;;;;;5045385;28;20477;-80
2021/12/20 01:16:14;;;;;;;5.97;4.43;;;;;;;;;;5044530;28;20457;-81
2021/12/20 01:18:41;;;;;;;7.90;4.93;;;;;;;;;;5046265;28;20472;-81
2021/12/20 01:21:08;;;;;;;6.63;4.37;;;;;;;;;;5046234;28;20517;-80
2021/12/20 01:23:36;;;;;;;5.80;4.63;;;;;;;;;;5045422;28;20479;-80
2021/12/20 01:26:02;;;;;;;6.53;4.80;;;;;;;;;;5047374;28;20491;-80
2021/12/20 01:28:28;;;;;;;5.13;3.70;;;;;;;;;;5043968;28;20480;-80
2021/12/20 01:30:55;;;;;;;8.67;5.37;;;;;;;;;;5044483;28;20518;-79
2021/12/20 01:33:21;;;;;;;10.10;4.60;;;;;;;;;;5043871;28;20460;-80
2021/12/20 01:35:48;;;;;;;10.03;5.23;;;;;;;;;;5045938;28;20447;-80
2021/12/20 01:38:15;;;;;;;11.73;5.70;;;;;;;;;;5043551;28;20459;-80
2021/12/20 01:40:41;;;;;;;7.43;4.30;;;;;;;;;;5045177;28;20453;-80
2021/12/20 01:43:10;;;;;;;9.27;5.00;;;;;;;;;;5045187;28;20483;-80
2021/12/20 01:45:37;;;;;;;8.50;4.80;;;;;;;;;;5044239;28;20490;-81
2021/12/20 01:48:06;;;;;;;10.03;5.40;;;;;;;;;;5039339;28;20468;-77
2021/12/20 01:50:49;;;;;;;8.33;5.47;;;;;;;;;;5044986;28;21043;-80
2021/12/20 01:53:18;;;;;;;8.00;5.30;;;;;;;;;;5044051;28;21108;-80
2021/12/20 01:55:44;;;;;;;9.43;5.20;;;;;;;;;;5046416;28;20937;-80
2021/12/20 01:58:11;;;;;;;18.30;7.70;;;;;;;;;;5044231;28;20965;-80
2021/12/20 02:00:49;;;;;;;19.97;7.07;;;;;;;;;;5044040;28;20463;-80
2021/12/20 02:03:15;;;;;;;25.80;9.97;;;;;;;;;;5039877;28;20935;-80
2021/12/20 02:05:47;;;;;;;31.83;8.53;;;;;;;;;;5043664;28;21008;-80
2021/12/20 02:08:20;;;;;;;24.20;8.50;;;;;;;;;;5043646;28;20457;-80
2021/12/20 02:10:50;;;;;;;15.33;7.13;;;;;;;;;;5045013;28;20460;-80
2021/12/20 02:13:16;;;;;;;18.83;6.40;;;;;;;;;;5045710;28;20535;-79
2021/12/20 02:15:43;;;;;;;33.93;7.73;;;;;;;;;;5048685;28;20453;-80
2021/12/20 02:18:09;;;;;;;18.20;6.97;;;;;;;;;;5044001;28;20523;-80
2021/12/20 02:20:37;;;;;;;13.93;6.97;;;;;;;;;;5047816;28;20955;-80
2021/12/20 02:23:05;;;;;;;17.77;7.10;;;;;;;;;;5048166;28;21016;-79
2021/12/20 02:25:32;;;;;;;16.67;8.00;;;;;;;;;;5049189;28;20452;-80
2021/12/20 02:28:02;;;;;;;18.73;8.67;;;;;;;;;;5046463;28;20447;-79
2021/12/20 02:30:45;;;;;;;18.13;8.03;;;;;;;;;;5047483;28;20476;-79
2021/12/20 02:38:41;;;;;;;15.33;5.50;;;;;;;;;;5015555;28;20542;-80
2021/12/20 02:41:10;;;;;;;21.53;6.40;;;;;;;;;;5048945;28;20525;-79
2021/12/20 02:43:40;;;;;;;19.67;6.57;;;;;;;;;;5047940;28;20484;-80
2021/12/20 02:46:11;;;;;;;28.23;8.23;;;;;;;;;;5045709;28;20464;-80
2021/12/20 02:48:37;;;;;;;14.83;6.30;;;;;;;;;;5048423;28;20521;-80
2021/12/20 02:51:04;;;;;;;11.83;6.30;;;;;;;;;;5046390;28;20464;-80
2021/12/20 02:53:31;;;;;;;10.23;5.93;;;;;;;;;;5045931;28;20537;-80
2021/12/20 02:55:57;;;;;;;16.60;5.70;;;;;;;;;;5045169;28;20479;-79
2021/12/20 02:58:23;;;;;;;8.20;5.57;;;;;;;;;;5045851;28;20471;-80
2021/12/20 03:00:49;;;;;;;14.90;5.60;;;;;;;;;;5046916;28;20545;-80
2021/12/20 03:03:16;;;;;;;13.10;5.80;;;;;;;;;;5046103;28;20483;-80
2021/12/20 03:05:42;;;;;;;12.00;6.00;;;;;;;;;;5046509;28;20540;-78
2021/12/20 03:08:09;;;;;;;7.60;5.10;;;;;;;;;;5045221;28;20495;-79
2021/12/20 03:10:40;;;;;;;11.80;6.20;;;;;;;;;;5045229;28;20459;-79
2021/12/20 03:13:06;;;;;;;16.00;6.57;;;;;;;;;;5043498;28;20610;-78
2021/12/20 03:15:32;;;;;;;13.30;6.40;;;;;;;;;;5046434;28;20448;-79
2021/12/20 03:17:58;;;;;;;14.83;6.23;;;;;;;;;;5044675;28;20456;-77
2021/12/20 03:20:25;;;;;;;12.60;6.80;;;;;;;;;;5045827;28;20467;-80
2021/12/20 03:22:51;;;;;;;8.80;5.80;;;;;;;;;;5043991;28;21504;-81
2021/12/20 03:25:21;;;;;;;10.53;5.87;;;;;;;;;;5044049;28;20472;-79
2021/12/20 03:27:47;;;;;;;11.83;6.77;;;;;;;;;;5043316;28;20470;-80
2021/12/20 03:30:14;;;;;;;15.63;5.67;;;;;;;;;;5042416;28;20477;-79
2021/12/20 03:32:40;;;;;;;8.40;5.83;;;;;;;;;;5042671;28;20481;-80
2021/12/20 03:35:07;;;;;;;9.63;5.17;;;;;;;;;;5045891;28;20467;-80
2021/12/20 03:37:33;;;;;;;8.27;5.40;;;;;;;;;;5041909;28;21030;-80
2021/12/20 03:40:00;;;;;;;17.50;6.77;;;;;;;;;;5045616;28;20987;-81
2021/12/20 03:42:28;;;;;;;14.80;5.77;;;;;;;;;;5042295;28;20481;-79
2021/12/20 03:44:55;;;;;;;14.67;4.57;;;;;;;;;;5042949;28;20582;-80
2021/12/20 03:47:21;;;;;;;13.80;5.23;;;;;;;;;;5042914;28;20456;-79
2021/12/20 03:49:47;;;;;;;13.43;7.37;;;;;;;;;;5039686;28;20479;-79
2021/12/20 03:52:14;;;;;;;7.70;5.50;;;;;;;;;;5042866;28;21016;-80
2021/12/20 03:54:40;;;;;;;9.17;5.30;;;;;;;;;;5041522;28;20542;-81
2021/12/20 03:57:07;;;;;;;8.07;5.20;;;;;;;;;;5044969;28;20445;-80
2021/12/20 03:59:34;;;;;;;10.50;5.30;;;;;;;;;;5042916;28;20534;-79
2021/12/20 04:02:01;;;;;;;15.43;5.17;;;;;;;;;;5044007;28;20486;-80
2021/12/20 04:04:27;;;;;;;11.00;4.90;;;;;;;;;;5043763;28;20476;-80
2021/12/20 04:06:53;;;;;;;9.10;5.20;;;;;;;;;;5040016;28;21015;-80
2021/12/20 04:09:20;;;;;;;13.03;4.93;;;;;;;;;;5041744;28;20468;-77
2021/12/20 04:11:46;;;;;;;11.57;5.77;;;;;;;;;;5042123;28;20455;-79
2021/12/20 04:14:13;;;;;;;9.67;4.80;;;;;;;;;;5043043;28;20531;-79
2021/12/20 04:16:40;;;;;;;10.23;5.50;;;;;;;;;;5042518;28;20834;-79
2021/12/20 04:19:06;;;;;;;10.70;5.67;;;;;;;;;;5042839;28;20877;-79
2021/12/20 04:21:33;;;;;;;8.37;4.80;;;;;;;;;;5038407;28;20530;-79
2021/12/20 04:23:59;;;;;;;7.13;4.83;;;;;;;;;;5041430;28;20487;-79
2021/12/20 04:26:25;;;;;;;10.20;5.10;;;;;;;;;;5044139;28;20445;-79
2021/12/20 04:28:51;;;;;;;6.83;5.10;;;;;;;;;;5042871;28;20481;-80
2021/12/20 04:31:18;;;;;;;12.20;5.23;;;;;;;;;;5044360;28;20510;-80
2021/12/20 04:33:45;;;;;;;9.73;5.90;;;;;;;;;;5042577;28;20477;-81
2021/12/20 04:36:11;;;;;;;14.80;6.27;;;;;;;;;;5040736;28;20460;-79
2021/12/20 04:38:39;;;;;;;10.83;4.63;;;;;;;;;;5042641;28;20482;-79
2021/12/20 04:41:05;;;;;;;10.40;6.30;;;;;;;;;;5044245;28;20984;-79
2021/12/20 04:46:12;;;;;;;7.70;5.43;;;;;;;;;;5061149;28;20478;-83
2021/12/20 04:48:38;;;;;;;14.57;6.40;;;;;;;;;;5062225;28;20891;-83
2021/12/20 04:51:06;;;;;;;11.30;5.60;;;;;;;;;;5063687;28;20456;-83
2021/12/20 04:53:32;;;;;;;13.83;5.90;;;;;;;;;;5062685;28;20904;-83
2021/12/20 04:55:59;;;;;;;8.97;5.57;;;;;;;;;;5063646;28;20534;-84
2021/12/20 04:58:25;;;;;;;11.27;6.30;;;;;;;;;;5062450;28;20976;-84
2021/12/20 05:00:51;;;;;;;11.40;6.37;;;;;;;;;;5063167;28;21021;-83
2021/12/20 05:03:17;;;;;;;13.80;6.20;;;;;;;;;;5064151;28;21218;-84
2021/12/20 05:05:43;;;;;;;15.60;6.43;;;;;;;;;;5064205;28;20478;-83
2021/12/20 05:08:12;;;;;;;16.43;7.40;;;;;;;;;;5059577;28;21191;-83
2021/12/20 05:10:40;;;;;;;10.50;5.93;;;;;;;;;;5062972;28;20467;-83
2021/12/20 05:13:08;;;;;;;10.10;5.90;;;;;;;;;;5062148;28;20550;-83
2021/12/20 05:15:35;;;;;;;18.70;6.30;;;;;;;;;;5063234;28;20537;-83
2021/12/20 05:18:02;;;;;;;9.67;5.37;;;;;;;;;;5063017;28;20459;-83
2021/12/20 05:20:28;;;;;;;9.03;6.03;;;;;;;;;;5063817;28;21079;-83
2021/12/20 05:22:55;;;;;;;13.50;6.17;;;;;;;;;;5063623;28;20479;-83
2021/12/20 05:25:23;;;;;;;12.70;6.10;;;;;;;;;;5060453;28;20600;-83
2021/12/20 05:27:49;;;;;;;15.60;6.30;;;;;;;;;;5061647;28;20521;-83
2021/12/20 05:30:16;;;;;;;14.73;6.77;;;;;;;;;;5059927;28;20479;-84
2021/12/20 05:32:43;;;;;;;14.10;6.00;;;;;;;;;;5056722;28;20881;-82
2021/12/20 05:35:09;;;;;;;14.87;6.60;;;;;;;;;;5057623;28;20599;-84
2021/12/20 05:37:36;;;;;;;11.07;5.57;;;;;;;;;;5060909;28;20512;-84
2021/12/20 05:40:03;;;;;;;14.93;6.00;;;;;;;;;;5059964;28;20532;-83
2021/12/20 05:42:30;;;;;;;11.90;6.33;;;;;;;;;;5061835;28;20538;-83
2021/12/20 05:44:57;;;;;;;15.53;6.43;;;;;;;;;;5052324;28;20476;-83
2021/12/20 05:47:23;;;;;;;11.60;7.17;;;;;;;;;;5039429;28;20456;-82
2021/12/20 05:49:49;;;;;;;14.03;6.77;;;;;;;;;;5041864;28;20472;-83
2021/12/20 05:52:16;;;;;;;11.97;5.73;;;;;;;;;;5042230;28;20448;-83
2021/12/20 05:54:42;;;;;;;12.40;5.63;;;;;;;;;;5038494;28;21201;-82
2021/12/20 05:57:08;;;;;;;18.53;6.50;;;;;;;;;;5043658;28;20453;-83
2021/12/20 05:59:36;;;;;;;11.33;6.20;;;;;;;;;;5042958;28;20468;-83
2021/12/20 06:02:02;;;;;;;13.00;6.70;;;;;;;;;;5038607;28;20464;-84
2021/12/20 06:04:28;;;;;;;14.90;5.97;;;;;;;;;;5041986;28;20480;-83
2021/12/20 06:06:55;;;;;;;14.73;8.77;;;;;;;;;;5042712;28;20467;-83
2021/12/20 06:09:21;;;;;;;15.10;6.60;;;;;;;;;;5040875;28;20765;-83
2021/12/20 06:11:47;;;;;;;11.40;6.53;;;;;;;;;;5042953;28;21103;-83
2021/12/20 06:14:14;;;;;;;15.97;6.60;;;;;;;;;;5043823;28;20550;-83
2021/12/20 06:16:41;;;;;;;18.77;7.80;;;;;;;;;;5041289;28;20464;-83
2021/12/20 06:19:08;;;;;;;16.47;8.30;;;;;;;;;;5041964;28;20471;-84
2021/12/20 06:21:34;;;;;;;17.43;7.10;;;;;;;;;;5039863;28;20463;-84
2021/12/20 06:24:01;;;;;;;16.90;8.00;;;;;;;;;;5041109;28;20495;-83
2021/12/20 06:26:27;;;;;;;20.57;7.20;;;;;;;;;;5042536;28;21022;-83
2021/12/20 06:28:54;;;;;;;16.97;6.50;;;;;;;;;;5042102;28;20468;-83
2021/12/20 06:31:20;;;;;;;17.50;6.90;;;;;;;;;;5038435;28;21028;-83
2021/12/20 06:33:47;;;;;;;9.77;6.43;;;;;;;;;;5040295;28;20533;-83
2021/12/20 06:36:15;;;;;;;17.37;6.23;;;;;;;;;;5039657;28;20469;-82
2021/12/20 06:38:45;;;;;;;15.70;6.53;;;;;;;;;;5038397;28;20594;-83
2021/12/20 06:41:12;;;;;;;13.67;6.90;;;;;;;;;;5041835;28;20932;-83
2021/12/20 06:43:38;;;;;;;13.20;6.37;;;;;;;;;;5038746;28;20487;-83
2021/12/20 06:46:05;;;;;;;14.00;6.03;;;;;;;;;;5040949;28;20454;-83
2021/12/20 06:48:31;;;;;;;12.60;6.37;;;;;;;;;;5040843;28;20526;-83
2021/12/20 06:50:58;;;;;;;14.10;6.47;;;;;;;;;;5043497;28;20511;-84
2021/12/20 06:53:25;;;;;;;16.67;6.47;;;;;;;;;;5038424;28;20483;-83
2021/12/20 06:55:51;;;;;;;11.80;7.50;;;;;;;;;;5038023;28;20507;-83
2021/12/20 06:58:17;;;;;;;16.07;6.97;;;;;;;;;;5041089;28;20470;-83
2021/12/20 07:00:43;;;;;;;17.13;7.20;;;;;;;;;;5039507;28;20488;-82
2021/12/20 07:03:10;;;;;;;7.87;5.10;;;;;;;;;;5044915;28;20531;-82
2021/12/20 07:05:36;;;;;;;16.70;6.70;;;;;;;;;;5041173;28;21270;-83
2021/12/20 07:08:04;;;;;;;17.83;8.77;;;;;;;;;;5044870;28;21011;-82
2021/12/20 07:10:30;;;;;;;12.07;6.80;;;;;;;;;;5046777;28;20462;-83
2021/12/20 07:12:56;;;;;;;26.03;8.43;;;;;;;;;;5046511;28;20445;-83
2021/12/20 07:15:24;;;;;;;15.03;7.80;;;;;;;;;;5046242;28;20480;-83
2021/12/20 07:17:51;;;;;;;14.40;7.30;;;;;;;;;;5041451;28;20483;-83
2021/12/20 07:20:17;;;;;;;6.87;5.60;;;;;;;;;;5044880;28;20480;-83
2021/12/20 07:22:43;;;;;;;9.03;5.87;;;;;;;;;;5045820;28;21104;-82
2021/12/20 07:25:11;;;;;;;15.33;7.00;;;;;;;;;;5044775;28;20464;-83
2021/12/20 07:27:38;;;;;;;11.63;6.50;;;;;;;;;;5045329;28;20498;-83
2021/12/20 07:30:05;;;;;;;10.00;5.90;;;;;;;;;;5044742;28;20464;-83
2021/12/20 07:32:31;;;;;;;13.50;6.17;;;;;;;;;;5045062;28;20510;-83
2021/12/20 07:34:57;;;;;;;14.47;7.50;;;;;;;;;;5041962;28;20534;-83
2021/12/20 07:37:26;;;;;;;22.53;7.70;;;;;;;;;;5042493;28;20527;-82
2021/12/20 07:39:52;;;;;;;20.07;7.50;;;;;;;;;;5042182;28;20562;-83
2021/12/20 07:42:20;;;;;;;13.70;6.70;;;;;;;;;;5045300;28;20448;-84
2021/12/20 07:44:47;;;;;;;13.97;7.23;;;;;;;;;;5043900;28;21073;-83
2021/12/20 07:47:13;;;;;;;14.70;7.93;;;;;;;;;;5045898;28;20440;-84
2021/12/20 07:49:40;;;;;;;13.70;7.83;;;;;;;;;;5045170;28;20481;-83
2021/12/20 07:52:07;;;;;;;13.00;6.77;;;;;;;;;;5045690;28;20560;-83
2021/12/20 07:54:33;;;;;;;16.97;6.40;;;;;;;;;;5040981;28;20641;-83
2021/12/20 07:56:59;;;;;;;10.03;7.20;;;;;;;;;;5038978;28;20864;-84
2021/12/20 07:59:27;;;;;;;14.97;7.17;;;;;;;;;;5044137;28;20906;-84
2021/12/20 08:01:53;;;;;;;12.87;6.70;;;;;;;;;;5045868;28;21010;-83
2021/12/20 08:04:21;;;;;;;20.37;7.80;;;;;;;;;;5046282;28;20473;-84
2021/12/20 08:06:47;;;;;;;19.33;8.77;;;;;;;;;;5045981;28;20455;-84
2021/12/20 08:09:14;;;;;;;14.67;8.27;;;;;;;;;;5045811;28;20468;-83
2021/12/20 08:11:40;;;;;;;16.43;7.10;;;;;;;;;;5045657;28;20498;-83
2021/12/20 08:14:06;;;;;;;20.20;8.97;;;;;;;;;;5042751;28;20533;-84
2021/12/20 08:16:34;;;;;;;19.80;7.80;;;;;;;;;;5044437;28;20464;-84
2021/12/20 08:19:01;;;;;;;14.67;7.30;;;;;;;;;;5044007;28;20483;-84
2021/12/20 08:21:27;;;;;;;14.63;8.23;;;;;;;;;;5046077;28;20463;-84
2021/12/20 08:23:53;;;;;;;17.40;8.53;;;;;;;;;;5046990;28;20492;-84
2021/12/20 08:26:19;;;;;;;13.77;7.60;;;;;;;;;;5046113;28;20885;-83
2021/12/20 08:28:46;;;;;;;14.17;7.93;;;;;;;;;;5044174;28;20872;-83
2021/12/20 08:31:12;;;;;;;10.97;6.93;;;;;;;;;;5047798;28;20445;-83
2021/12/20 08:33:40;;;;;;;20.10;8.77;;;;;;;;;;5047312;28;20897;-82
2021/12/20 08:36:09;;;;;;;13.77;8.53;;;;;;;;;;5046952;28;20465;-84
2021/12/20 08:38:35;;;;;;;20.73;9.00;;;;;;;;;;5045153;28;20556;-84
2021/12/20 08:41:02;;;;;;;14.40;8.60;;;;;;;;;;5045419;28;21577;-83
2021/12/20 08:43:29;;;;;;;16.93;8.43;;;;;;;;;;5045375;28;20464;-83
2021/12/20 08:45:56;;;;;;;15.70;8.50;;;;;;;;;;5045298;28;20495;-83
2021/12/20 08:48:22;;;;;;;23.27;10.63;;;;;;;;;;5046515;28;20464;-84
2021/12/20 08:50:50;;;;;;;16.97;9.37;;;;;;;;;;5046470;28;20501;-84
2021/12/20 08:53:16;;;;;;;19.17;8.43;;;;;;;;;;5043902;28;20461;-82
2021/12/20 08:55:42;;;;;;;28.33;10.67;;;;;;;;;;5043972;28;20489;-83
2021/12/20 08:58:09;;;;;;;11.90;8.07;;;;;;;;;;5043730;28;21060;-83
2021/12/20 09:00:37;;;;;;;16.13;9.97;;;;;;;;;;5045267;28;20554;-84
2021/12/20 09:03:04;;;;;;;14.10;9.00;;;;;;;;;;5043752;28;20506;-83
2021/12/20 09:05:31;;;;;;;17.83;9.20;;;;;;;;;;5044552;28;20479;-84
2021/12/20 09:08:01;;;;;;;15.33;9.30;;;;;;;;;;5041810;28;20494;-84
2021/12/20 09:10:28;;;;;;;22.03;9.60;;;;;;;;;;5042555;28;20736;-82
2021/12/20 09:12:54;;;;;;;21.43;11.10;;;;;;;;;;5043916;28;21011;-83
2021/12/20 09:15:20;;;;;;;21.90;10.60;;;;;;;;;;5043406;28;20530;-84
2021/12/20 09:17:48;;;;;;;14.50;10.00;;;;;;;;;;5043204;28;20445;-84
2021/12/20 09:20:15;;;;;;;27.03;11.43;;;;;;;;;;5044276;28;20479;-83
2021/12/20 09:22:50;;;;;;;24.20;10.70;;;;;;;;;;5042212;28;20464;-84
2021/12/20 09:25:17;;;;;;;19.97;11.03;;;;;;;;;;5042679;28;20553;-83
2021/12/20 09:27:44;;;;;;;19.83;10.70;;;;;;;;;;5043280;28;20498;-83
2021/12/20 09:30:11;;;;;;;19.00;10.50;;;;;;;;;;5040782;28;20537;-82
2021/12/20 09:32:37;;;;;;;17.73;9.93;;;;;;;;;;5041393;28;20551;-83
2021/12/20 09:35:04;;;;;;;21.20;11.67;;;;;;;;;;5043339;28;20498;-84
2021/12/20 09:37:30;;;;;;;16.47;10.47;;;;;;;;;;5041739;28;20506;-84
2021/12/20 09:39:56;;;;;;;15.20;10.27;;;;;;;;;;5041214;28;20471;-83
2021/12/20 09:42:24;;;;;;;17.70;11.43;;;;;;;;;;5043238;28;20490;-84
2021/12/20 09:44:50;;;;;;;19.00;12.10;;;;;;;;;;5040795;28;20476;-82
2021/12/20 09:47:16;;;;;;;19.40;12.60;;;;;;;;;;5040923;28;20964;-84
2021/12/20 09:49:43;;;;;;;17.40;11.37;;;;;;;;;;5040431;28;20523;-83
2021/12/20 09:52:09;;;;;;;18.40;11.40;;;;;;;;;;5040308;28;20452;-84
2021/12/20 09:54:37;;;;;;;22.80;10.93;;;;;;;;;;5039608;28;20492;-83
2021/12/20 09:57:06;;;;;;;21.00;12.40;;;;;;;;;;5041232;28;20454;-82
2021/12/20 09:59:36;;;;;;;25.73;13.50;;;;;;;;;;5041896;28;20534;-84
2021/12/20 10:02:06;;;;;;;20.60;14.37;;;;;;;;;;5041702;28;20458;-83
2021/12/20 10:04:32;;;;;;;20.73;14.73;;;;;;;;;;5039659;28;20496;-83
2021/12/20 10:06:59;;;;;;;25.10;13.97;;;;;;;;;;5040700;28;20517;-83
2021/12/20 10:09:29;;;;;;;27.90;14.53;;;;;;;;;;5040972;28;20479;-84
2021/12/20 10:12:19;;;;;;;21.10;14.40;;;;;;;;;;5042907;28;20483;-83
2021/12/20 10:14:57;;;;;;;24.47;14.47;;;;;;;;;;5020981;28;20894;-82
2021/12/20 10:17:26;;;;;;;23.50;14.10;;;;;;;;;;5041265;28;20451;-83
2021/12/20 10:19:52;;;;;;;24.63;14.30;;;;;;;;;;5039817;28;20574;-83
2021/12/20 10:22:22;;;;;;;30.13;17.30;;;;;;;;;;5040916;28;20455;-83
2021/12/20 10:24:48;;;;;;;21.50;15.40;;;;;;;;;;5039074;28;20521;-83
2021/12/20 10:27:27;;;;;;;22.80;13.77;;;;;;;;;;5042491;28;20467;-83
2021/12/20 10:29:53;;;;;;;26.20;15.50;;;;;;;;;;5041285;28;20521;-84
2021/12/20 10:32:34;;;;;;;25.00;13.97;;;;;;;;;;5042384;28;20491;-83
2021/12/20 10:35:02;;;;;;;30.57;13.57;;;;;;;;;;5043365;28;20477;-84
2021/12/20 10:37:38;;;;;;;21.53;14.33;;;;;;;;;;5046084;28;20448;-84
2021/12/20 10:40:05;;;;;;;23.43;14.60;;;;;;;;;;5042170;28;21043;-84
2021/12/20 10:42:40;;;;;;;32.17;15.93;;;;;;;;;;5046117;28;20456;-83
2021/12/20 10:47:38;;;;;;;18.27;10.57;;;;;;;;;;5037069;28;20580;-84
2021/12/20 10:50:21;;;;;;;23.17;13.00;;;;;;;;;;5039562;28;20464;-85
2021/12/20 10:52:48;;;;;;;31.07;12.70;;;;;;;;;;5041362;28;20502;-85
2021/12/20 10:55:14;;;;;;;19.63;12.13;;;;;;;;;;5040571;28;20464;-84
2021/12/20 10:57:40;;;;;;;21.97;10.07;;;;;;;;;;5039496;28;20452;-84
2021/12/20 11:00:17;;;;;;;20.87;8.60;;;;;;;;;;5041149;28;20467;-84
2021/12/20 11:05:56;;;;;;;17.93;6.80;;;;;;;;;;5038225;28;20544;-85
2021/12/20 11:11:11;;;;;;;16.93;6.70;;;;;;;;;;5039899;28;20832;-85
2021/12/20 11:13:38;;;;;;;14.03;5.33;;;;;;;;;;5041503;28;20472;-85
2021/12/20 11:16:19;;;;;;;16.43;5.60;;;;;;;;;;5042609;28;20469;-86
2021/12/20 11:18:45;;;;;;;10.67;5.20;;;;;;;;;;5041221;28;21014;-85
2021/12/20 11:21:14;;;;;;;17.13;6.33;;;;;;;;;;5036393;28;20466;-86
2021/12/20 11:23:41;;;;;;;11.17;5.43;;;;;;;;;;5039370;28;20465;-83
2021/12/20 11:26:07;;;;;;;20.37;6.90;;;;;;;;;;5039967;28;20469;-85
2021/12/20 11:28:33;;;;;;;9.77;5.40;;;;;;;;;;5038760;28;20507;-85
2021/12/20 11:31:00;;;;;;;15.30;5.57;;;;;;;;;;5041246;28;20433;-86
2021/12/20 11:33:27;;;;;;;12.93;5.37;;;;;;;;;;5041853;28;20475;-83
2021/12/20 11:35:53;;;;;;;12.80;5.70;;;;;;;;;;5041817;28;20464;-85
2021/12/20 11:38:21;;;;;;;9.10;5.70;;;;;;;;;;5039217;28;20480;-84
2021/12/20 11:40:47;;;;;;;13.17;4.80;;;;;;;;;;5037195;28;20487;-86
2021/12/20 11:43:13;;;;;;;8.37;3.83;;;;;;;;;;5039347;28;20508;-86
2021/12/20 11:45:40;;;;;;;11.00;4.67;;;;;;;;;;5047447;28;20540;-85
2021/12/20 11:48:10;;;;;;;8.87;4.97;;;;;;;;;;5080652;28;20443;-85
2021/12/20 11:50:37;;;;;;;14.63;5.60;;;;;;;;;;5082509;28;20438;-85
2021/12/20 11:53:07;;;;;;;10.50;4.90;;;;;;;;;;5079856;28;20450;-84
2021/12/20 11:55:35;;;;;;;11.50;5.07;;;;;;;;;;5079465;28;20675;-86
2021/12/20 11:58:02;;;;;;;15.43;4.70;;;;;;;;;;5072329;28;20458;-86
2021/12/20 12:00:29;;;;;;;16.93;4.57;;;;;;;;;;5077658;28;20513;-87
2021/12/20 12:02:57;;;;;;;9.67;4.63;;;;;;;;;;5080265;28;20501;-84
2021/12/20 12:05:32;;;;;;;9.73;3.40;;;;;;;;;;5080249;28;20859;-84
2021/12/20 12:08:13;;;;;;;10.90;3.70;;;;;;;;;;5081899;28;20494;-85
2021/12/20 12:10:40;;;;;;;7.10;3.30;;;;;;;;;;5079903;28;20525;-84
2021/12/20 12:13:15;;;;;;;10.23;3.27;;;;;;;;;;5074617;28;20474;-84
2021/12/20 12:15:52;;;;;;;16.03;3.63;;;;;;;;;;5079860;28;20537;-86
2021/12/20 12:18:18;;;;;;;9.80;3.87;;;;;;;;;;5080766;28;20447;-85
2021/12/20 12:20:47;;;;;;;17.93;4.90;;;;;;;;;;5080727;28;20439;-84
2021/12/20 12:23:15;;;;;;;6.50;3.80;;;;;;;;;;5080817;28;20448;-86
2021/12/20 12:25:44;;;;;;;6.70;3.00;;;;;;;;;;5081333;28;20486;-86
2021/12/20 12:28:11;;;;;;;5.00;3.10;;;;;;;;;;5078135;28;20463;-86
2021/12/20 12:30:38;;;;;;;7.73;3.27;;;;;;;;;;5079694;28;20504;-85
2021/12/20 12:33:17;;;;;;;13.80;3.70;;;;;;;;;;5073582;28;20464;-84
2021/12/20 12:35:51;;;;;;;7.70;3.07;;;;;;;;;;5080897;28;20463;-82
2021/12/20 12:38:19;;;;;;;10.27;3.10;;;;;;;;;;5080379;28;20458;-83
2021/12/20 12:40:49;;;;;;;8.40;2.87;;;;;;;;;;5080694;28;20454;-83
2021/12/20 12:43:15;;;;;;;6.47;2.97;;;;;;;;;;5079364;28;20815;-85
2021/12/20 12:45:49;;;;;;;5.70;3.30;;;;;;;;;;5078923;28;20490;-85
2021/12/20 12:48:34;;;;;;;9.07;2.97;;;;;;;;;;5075782;28;20491;-83
2021/12/20 12:51:04;;;;;;;7.77;4.60;;;;;;;;;;5078242;28;20944;-82
2021/12/20 12:53:41;;;;;;;8.33;3.70;;;;;;;;;;5079589;28;21093;-84
2021/12/20 12:56:26;;;;;;;7.20;2.73;;;;;;;;;;5079985;28;20462;-83
2021/12/20 12:59:07;;;;;;;9.60;3.07;;;;;;;;;;5078517;28;20928;-82
2021/12/20 13:01:35;;;;;;;7.60;3.07;;;;;;;;;;5079162;28;20513;-85
2021/12/20 13:04:01;;;;;;;7.63;2.77;;;;;;;;;;5076373;28;21006;-83
2021/12/20 13:06:27;;;;;;;6.00;2.30;;;;;;;;;;5074871;28;20999;-83
2021/12/20 13:08:54;;;;;;;4.67;2.90;;;;;;;;;;5078281;28;20537;-83
2021/12/20 13:11:21;;;;;;;8.57;3.50;;;;;;;;;;5074236;28;20853;-84
2021/12/20 13:13:53;;;;;;;11.30;3.30;;;;;;;;;;5074047;28;20580;-84
2021/12/20 13:16:24;;;;;;;7.10;3.63;;;;;;;;;;5076996;28;20999;-83
2021/12/20 13:18:53;;;;;;;8.67;2.87;;;;;;;;;;5078585;28;20474;-85
2021/12/20 13:21:25;;;;;;;16.00;3.93;;;;;;;;;;5074168;28;20965;-83
2021/12/20 13:23:52;;;;;;;9.20;2.60;;;;;;;;;;5077395;28;21094;-83
2021/12/20 13:26:21;;;;;;;5.10;3.10;;;;;;;;;;5078772;28;20505;-84
2021/12/20 13:28:49;;;;;;;4.57;2.53;;;;;;;;;;5079421;28;20824;-83
2021/12/20 13:31:16;;;;;;;6.47;2.30;;;;;;;;;;5075642;28;21440;-83
2021/12/20 13:33:45;;;;;;;6.20;2.80;;;;;;;;;;5078007;28;20891;-81
2021/12/20 13:36:13;;;;;;;4.33;3.07;;;;;;;;;;5078211;28;20558;-84
2021/12/20 13:38:41;;;;;;;6.30;2.17;;;;;;;;;;5077424;28;20477;-83
2021/12/20 13:41:07;;;;;;;6.50;2.67;;;;;;;;;;5079561;28;20488;-85
2021/12/20 13:43:37;;;;;;;6.33;2.37;;;;;;;;;;5078904;28;20572;-83
2021/12/20 13:46:05;;;;;;;4.63;2.60;;;;;;;;;;5076304;28;20640;-83
2021/12/20 13:48:31;;;;;;;10.90;3.10;;;;;;;;;;5077317;28;20469;-85
2021/12/20 13:50:57;;;;;;;8.17;3.60;;;;;;;;;;5078232;28;20447;-85
2021/12/20 13:53:29;;;;;;;9.30;3.13;;;;;;;;;;5079120;28;20466;-84
2021/12/20 13:55:56;;;;;;;11.37;3.33;;;;;;;;;;5078202;28;20532;-85
2021/12/20 13:58:23;;;;;;;5.97;2.93;;;;;;;;;;5078292;28;20470;-87
2021/12/20 14:00:49;;;;;;;12.80;2.93;;;;;;;;;;5074157;28;20459;-86
2021/12/20 14:03:16;;;;;;;10.87;3.40;;;;;;;;;;5074505;28;20877;-85
2021/12/20 14:05:42;;;;;;;4.97;3.33;;;;;;;;;;5078942;28;20534;-84
2021/12/20 14:08:15;;;;;;;5.77;3.00;;;;;;;;;;5077149;28;20491;-85
2021/12/20 14:10:43;;;;;;;9.10;2.90;;;;;;;;;;5082464;28;20447;-86
2021/12/20 14:13:11;;;;;;;7.93;2.70;;;;;;;;;;5083364;28;21031;-86
2021/12/20 14:15:38;;;;;;;10.90;3.00;;;;;;;;;;5081854;28;20560;-87
2021/12/20 14:18:05;;;;;;;8.93;3.50;;;;;;;;;;5079003;28;20500;-86
2021/12/20 14:20:39;;;;;;;9.27;4.00;;;;;;;;;;5080513;28;20503;-84
2021/12/20 14:23:06;;;;;;;11.93;3.10;;;;;;;;;;5081948;28;20491;-85
2021/12/20 14:25:33;;;;;;;4.57;2.57;;;;;;;;;;5082809;28;20492;-84
2021/12/20 14:28:02;;;;;;;10.30;2.97;;;;;;;;;;5082920;28;20450;-84
2021/12/20 14:30:29;;;;;;;9.73;4.60;;;;;;;;;;5081008;28;20559;-84
2021/12/20 14:32:55;;;;;;;6.90;3.50;;;;;;;;;;5082204;28;20459;-85
2021/12/20 14:35:29;;;;;;;7.03;3.83;;;;;;;;;;5082302;28;21083;-85
2021/12/20 14:37:56;;;;;;;8.00;4.07;;;;;;;;;;5078087;28;21168;-84
2021/12/20 14:40:39;;;;;;;6.60;2.90;;;;;;;;;;5081765;28;20477;-84
2021/12/20 14:43:10;;;;;;;8.63;3.20;;;;;;;;;;5082069;28;20504;-85
2021/12/20 14:45:36;;;;;;;12.00;4.37;;;;;;;;;;5081506;28;20914;-86
2021/12/20 14:48:20;;;;;;;7.97;4.50;;;;;;;;;;5079661;28;20447;-85
2021/12/20 14:50:48;;;;;;;6.07;3.57;;;;;;;;;;5078144;28;20570;-85
2021/12/20 14:53:15;;;;;;;8.97;4.10;;;;;;;;;;5080391;28;20459;-85